sensor_id;sensor_type;location;lat;lon;timestamp;pressure;altitude;pressure_sealevel;temperature;humidity
69772;BME280;57046;45.988;18.664;2023-03-03T00:01:33;100949.28;;;7.99;99.96
69772;BME280;57046;45.988;18.664;2023-03-03T00:03:58;100962.06;;;8.07;100.00
69772;BME280;57046;45.988;18.664;2023-03-03T00:06:24;100957.50;;;8.08;100.00
69772;BME280;57046;45.988;18.664;2023-03-03T00:08:50;100956.41;;;8.09;99.93
69772;BME280;57046;45.988;18.664;2023-03-03T00:11:15;100958.56;;;8.07;100.00
69772;BME280;57046;45.988;18.664;2023-03-03T00:13:51;100966.38;;;8.08;99.38
69772;BME280;57046;45.988;18.664;2023-03-03T00:16:27;100962.88;;;8.08;99.93
69772;BME280;57046;45.988;18.664;2023-03-03T00:18:54;100963.16;;;8.06;100.00
69772;BME280;57046;45.988;18.664;2023-03-03T00:23:45;100954.34;;;8.01;100.00
69772;BME280;57046;45.988;18.664;2023-03-03T00:26:25;100956.78;;;8.02;100.00
69772;BME280;57046;45.988;18.664;2023-03-03T00:28:53;100948.13;;;8.05;100.00
69772;BME280;57046;45.988;18.664;2023-03-03T00:31:31;100955.38;;;8.05;100.00
69772;BME280;57046;45.988;18.664;2023-03-03T00:34:24;100950.00;;;8.05;100.00
69772;BME280;57046;45.988;18.664;2023-03-03T00:36:51;100935.53;;;8.01;100.00
69772;BME280;57046;45.988;18.664;2023-03-03T00:39:33;100935.81;;;7.99;100.00
69772;BME280;57046;45.988;18.664;2023-03-03T00:42:00;100934.50;;;7.78;100.00
69772;BME280;57046;45.988;18.664;2023-03-03T00:44:30;100945.16;;;7.83;100.00
69772;BME280;57046;45.988;18.664;2023-03-03T00:47:10;100944.53;;;7.91;100.00
69772;BME280;57046;45.988;18.664;2023-03-03T00:49:38;100927.31;;;7.92;100.00
69772;BME280;57046;45.988;18.664;2023-03-03T00:52:11;100930.50;;;7.94;100.00
69772;BME280;57046;45.988;18.664;2023-03-03T00:54:37;100923.22;;;7.95;100.00
69772;BME280;57046;45.988;18.664;2023-03-03T00:57:03;100922.47;;;7.89;100.00
69772;BME280;57046;45.988;18.664;2023-03-03T00:59:28;100923.22;;;7.95;100.00
69772;BME280;57046;45.988;18.664;2023-03-03T01:01:53;100909.78;;;7.95;100.00
69772;BME280;57046;45.988;18.664;2023-03-03T01:04:19;100923.13;;;8.00;100.00
69772;BME280;57046;45.988;18.664;2023-03-03T01:06:44;100916.75;;;7.96;100.00
69772;BME280;57046;45.988;18.664;2023-03-03T01:09:09;100902.50;;;7.95;100.00
69772;BME280;57046;45.988;18.664;2023-03-03T01:11:35;100901.03;;;7.84;100.00
69772;BME280;57046;45.988;18.664;2023-03-03T01:14:00;100887.09;;;7.82;100.00
69772;BME280;57046;45.988;18.664;2023-03-03T01:16:26;100892.69;;;7.86;100.00
69772;BME280;57046;45.988;18.664;2023-03-03T01:18:51;100894.50;;;7.90;100.00
69772;BME280;57046;45.988;18.664;2023-03-03T01:21:16;100892.88;;;7.89;100.00
69772;BME280;57046;45.988;18.664;2023-03-03T01:23:42;100889.91;;;7.91;100.00
69772;BME280;57046;45.988;18.664;2023-03-03T01:26:07;100876.97;;;7.93;100.00
69772;BME280;57046;45.988;18.664;2023-03-03T01:28:33;100882.44;;;7.88;100.00
69772;BME280;57046;45.988;18.664;2023-03-03T01:31:03;100888.31;;;7.90;100.00
69772;BME280;57046;45.988;18.664;2023-03-03T01:33:29;100881.13;;;7.85;100.00
69772;BME280;57046;45.988;18.664;2023-03-03T01:35:54;100884.09;;;7.84;100.00
69772;BME280;57046;45.988;18.664;2023-03-03T01:38:20;100895.38;;;7.86;100.00
69772;BME280;57046;45.988;18.664;2023-03-03T01:40:52;100886.41;;;7.90;100.00
69772;BME280;57046;45.988;18.664;2023-03-03T01:43:17;100889.63;;;7.92;100.00
69772;BME280;57046;45.988;18.664;2023-03-03T01:48:26;100891.09;;;7.85;100.00
69772;BME280;57046;45.988;18.664;2023-03-03T01:51:26;100884.31;;;7.87;100.00
69772;BME280;57046;45.988;18.664;2023-03-03T01:54:03;100869.72;;;7.75;100.00
69772;BME280;57046;45.988;18.664;2023-03-03T01:56:29;100887.50;;;7.89;100.00
69772;BME280;57046;45.988;18.664;2023-03-03T01:59:06;100893.91;;;7.93;100.00
69772;BME280;57046;45.988;18.664;2023-03-03T02:01:36;100888.03;;;7.91;100.00
69772;BME280;57046;45.988;18.664;2023-03-03T02:04:01;100874.56;;;7.91;100.00
69772;BME280;57046;45.988;18.664;2023-03-03T02:06:34;100877.75;;;7.93;100.00
69772;BME280;57046;45.988;18.664;2023-03-03T02:11:37;100889.06;;;7.95;100.00
69772;BME280;57046;45.988;18.664;2023-03-03T02:14:02;100875.06;;;7.93;100.00
69772;BME280;57046;45.988;18.664;2023-03-03T02:16:28;100870.00;;;7.92;100.00
69772;BME280;57046;45.988;18.664;2023-03-03T02:18:54;100868.88;;;7.93;100.00
69772;BME280;57046;45.988;18.664;2023-03-03T02:21:21;100864.91;;;7.90;100.00
69772;BME280;57046;45.988;18.664;2023-03-03T02:24:07;100841.72;;;7.76;100.00
69772;BME280;57046;45.988;18.664;2023-03-03T02:26:36;100870.00;;;7.92;100.00
69772;BME280;57046;45.988;18.664;2023-03-03T02:29:03;100860.03;;;7.92;100.00
69772;BME280;57046;45.988;18.664;2023-03-03T02:31:30;100867.31;;;7.92;100.00
69772;BME280;57046;45.988;18.664;2023-03-03T02:33:56;100854.66;;;7.92;100.00
69772;BME280;57046;45.988;18.664;2023-03-03T02:36:25;100861.63;;;7.93;100.00
69772;BME280;57046;45.988;18.664;2023-03-03T02:44:38;100851.75;;;7.89;100.00
69772;BME280;57046;45.988;18.664;2023-03-03T02:47:03;100848.25;;;7.88;100.00
69772;BME280;57046;45.988;18.664;2023-03-03T02:49:31;100848.09;;;7.80;100.00
69772;BME280;57046;45.988;18.664;2023-03-03T02:51:58;100850.44;;;7.86;100.00
69772;BME280;57046;45.988;18.664;2023-03-03T02:54:24;100860.59;;;7.89;100.00
69772;BME280;57046;45.988;18.664;2023-03-03T02:56:50;100863.81;;;7.91;100.00
69772;BME280;57046;45.988;18.664;2023-03-03T02:59:16;100864.91;;;7.90;100.00
69772;BME280;57046;45.988;18.664;2023-03-03T03:01:42;100854.66;;;7.92;100.00
69772;BME280;57046;45.988;18.664;2023-03-03T03:04:13;100862.41;;;7.94;100.00
69772;BME280;57046;45.988;18.664;2023-03-03T03:06:39;100859.25;;;7.92;100.00
69772;BME280;57046;45.988;18.664;2023-03-03T03:09:06;100857.91;;;7.89;100.00
69772;BME280;57046;45.988;18.664;2023-03-03T03:11:32;100859.50;;;7.90;100.00
69772;BME280;57046;45.988;18.664;2023-03-03T03:13:57;100854.72;;;7.87;100.00
69772;BME280;57046;45.988;18.664;2023-03-03T03:16:23;100852.53;;;7.89;100.00
69772;BME280;57046;45.988;18.664;2023-03-03T03:18:48;100852.25;;;7.91;100.00
69772;BME280;57046;45.988;18.664;2023-03-03T03:21:13;100853.34;;;7.90;100.00
69772;BME280;57046;45.988;18.664;2023-03-03T03:23:39;100849.72;;;7.81;100.00
69772;BME280;57046;45.988;18.664;2023-03-03T03:26:05;100844.69;;;7.74;100.00
69772;BME280;57046;45.988;18.664;2023-03-03T03:28:31;100853.69;;;7.83;100.00
69772;BME280;57046;45.988;18.664;2023-03-03T03:30:57;100853.13;;;7.86;100.00
69772;BME280;57046;45.988;18.664;2023-03-03T03:33:22;100850.94;;;7.88;100.00
69772;BME280;57046;45.988;18.664;2023-03-03T03:35:48;100843.16;;;7.87;100.00
69772;BME280;57046;45.988;18.664;2023-03-03T03:38:14;100855.16;;;7.94;100.00
69772;BME280;57046;45.988;18.664;2023-03-03T03:40:39;100849.78;;;7.94;100.00
69772;BME280;57046;45.988;18.664;2023-03-03T03:43:05;100852.41;;;7.99;100.00
69772;BME280;57046;45.988;18.664;2023-03-03T03:45:30;100847.31;;;7.98;100.00
69772;BME280;57046;45.988;18.664;2023-03-03T03:47:56;100852.09;;;8.01;100.00
69772;BME280;57046;45.988;18.664;2023-03-03T03:50:21;100853.19;;;8.00;100.00
69772;BME280;57046;45.988;18.664;2023-03-03T03:52:47;100853.69;;;8.02;100.00
69772;BME280;57046;45.988;18.664;2023-03-03T03:55:12;100845.91;;;8.00;100.00
69772;BME280;57046;45.988;18.664;2023-03-03T03:57:38;100849.41;;;8.01;100.00
69772;BME280;57046;45.988;18.664;2023-03-03T04:00:07;100845.91;;;8.00;100.00
69772;BME280;57046;45.988;18.664;2023-03-03T04:02:34;100850.28;;;7.96;100.00
69772;BME280;57046;45.988;18.664;2023-03-03T04:04:59;100848.09;;;7.98;100.00
69772;BME280;57046;45.988;18.664;2023-03-03T04:07:25;100859.09;;;8.02;100.00
69772;BME280;57046;45.988;18.664;2023-03-03T04:09:50;100866.34;;;8.01;100.00
69772;BME280;57046;45.988;18.664;2023-03-03T04:12:15;100854.13;;;7.90;100.00
69772;BME280;57046;45.988;18.664;2023-03-03T04:14:41;100865.91;;;7.94;100.00
69772;BME280;57046;45.988;18.664;2023-03-03T04:17:06;100864.31;;;7.93;100.00
69772;BME280;57046;45.988;18.664;2023-03-03T04:19:31;100854.94;;;7.91;100.00
69772;BME280;57046;45.988;18.664;2023-03-03T04:21:57;100867.00;;;7.93;100.00
69772;BME280;57046;45.988;18.664;2023-03-03T04:24:22;100861.34;;;7.95;100.00
69772;BME280;57046;45.988;18.664;2023-03-03T04:26:47;100864.31;;;7.93;100.00
69772;BME280;57046;45.988;18.664;2023-03-03T04:29:13;100861.03;;;7.96;100.00
69772;BME280;57046;45.988;18.664;2023-03-03T04:31:38;100863.72;;;7.96;100.00
69772;BME280;57046;45.988;18.664;2023-03-03T04:34:04;100861.03;;;7.96;100.00
69772;BME280;57046;45.988;18.664;2023-03-03T04:36:29;100858.44;;;7.91;100.00
69772;BME280;57046;45.988;18.664;2023-03-03T04:38:55;100862.63;;;7.97;100.00
69772;BME280;57046;45.988;18.664;2023-03-03T04:41:20;100869.41;;;7.95;100.00
69772;BME280;57046;45.988;18.664;2023-03-03T04:43:45;100864.03;;;7.95;100.00
69772;BME280;57046;45.988;18.664;2023-03-03T04:46:11;100867.00;;;7.93;100.00
69772;BME280;57046;45.988;18.664;2023-03-03T04:48:36;100867.81;;;7.94;100.00
69772;BME280;57046;45.988;18.664;2023-03-03T04:51:01;100867.81;;;7.94;100.00
69772;BME280;57046;45.988;18.664;2023-03-03T04:53:27;100866.72;;;7.95;100.00
69772;BME280;57046;45.988;18.664;2023-03-03T04:55:52;100861.13;;;7.91;100.00
69772;BME280;57046;45.988;18.664;2023-03-03T04:58:19;100877.72;;;7.98;100.00
69772;BME280;57046;45.988;18.664;2023-03-03T05:00:53;100872.31;;;7.98;100.00
69772;BME280;57046;45.988;18.664;2023-03-03T05:03:19;100860.75;;;7.98;100.00
69772;BME280;57046;45.988;18.664;2023-03-03T05:05:45;100859.94;;;7.97;100.00
69772;BME280;57046;45.988;18.664;2023-03-03T05:08:14;100862.94;;;7.96;100.00
69772;BME280;57046;45.988;18.664;2023-03-03T05:10:39;100864.53;;;7.97;100.00
69772;BME280;57046;45.988;18.664;2023-03-03T05:13:05;100855.66;;;7.96;100.00
69772;BME280;57046;45.988;18.664;2023-03-03T05:15:31;100855.66;;;7.96;100.00
69772;BME280;57046;45.988;18.664;2023-03-03T05:17:57;100862.72;;;7.92;100.00
69772;BME280;57046;45.988;18.664;2023-03-03T05:20:23;100856.53;;;7.92;100.00
69772;BME280;57046;45.988;18.664;2023-03-03T05:22:49;100853.56;;;7.93;100.00
69772;BME280;57046;45.988;18.664;2023-03-03T05:25:14;100853.56;;;7.93;100.00
69772;BME280;57046;45.988;18.664;2023-03-03T05:27:40;100850.47;;;8.00;100.00
69772;BME280;57046;45.988;18.664;2023-03-03T05:30:05;100854.28;;;7.99;100.00
69772;BME280;57046;45.988;18.664;2023-03-03T05:32:31;100853.28;;;7.95;100.00
69772;BME280;57046;45.988;18.664;2023-03-03T05:34:57;100850.63;;;7.90;100.00
69772;BME280;57046;45.988;18.664;2023-03-03T05:37:22;100845.19;;;7.95;100.00
69772;BME280;57046;45.988;18.664;2023-03-03T05:39:47;100850.28;;;7.96;100.00
69772;BME280;57046;45.988;18.664;2023-03-03T05:42:13;100845.19;;;7.95;100.00
69772;BME280;57046;45.988;18.664;2023-03-03T05:44:40;100854.88;;;7.96;100.00
69772;BME280;57046;45.988;18.664;2023-03-03T05:47:05;100847.72;;;7.86;100.00
69772;BME280;57046;45.988;18.664;2023-03-03T05:49:31;100856.81;;;7.90;100.00
69772;BME280;57046;45.988;18.664;2023-03-03T05:51:56;100859.50;;;7.90;100.00
69772;BME280;57046;45.988;18.664;2023-03-03T05:54:21;100858.94;;;7.93;100.00
69772;BME280;57046;45.988;18.664;2023-03-03T05:56:47;100858.94;;;7.93;100.00
69772;BME280;57046;45.988;18.664;2023-03-03T05:59:12;100858.66;;;7.95;100.00
69772;BME280;57046;45.988;18.664;2023-03-03T06:01:37;100871.56;;;7.93;100.00
69772;BME280;57046;45.988;18.664;2023-03-03T06:04:03;100866.78;;;7.90;100.00
69772;BME280;57046;45.988;18.664;2023-03-03T06:06:28;100870.59;;;7.89;100.00
69772;BME280;57046;45.988;18.664;2023-03-03T06:08:54;100883.00;;;7.85;100.00
69772;BME280;57046;45.988;18.664;2023-03-03T06:11:19;100883.28;;;7.83;100.00
69772;BME280;57046;45.988;18.664;2023-03-03T06:13:44;100870.06;;;7.87;100.00
69772;BME280;57046;45.988;18.664;2023-03-03T06:16:10;100874.13;;;7.84;100.00
69772;BME280;57046;45.988;18.664;2023-03-03T06:18:35;100874.06;;;7.89;100.00
69772;BME280;57046;45.988;18.664;2023-03-03T06:21:00;100872.69;;;7.92;100.00
69772;BME280;57046;45.988;18.664;2023-03-03T06:23:26;100888.53;;;7.93;100.00
69772;BME280;57046;45.988;18.664;2023-03-03T06:25:51;100876.25;;;7.87;100.00
69772;BME280;57046;45.988;18.664;2023-03-03T06:28:16;100887.72;;;7.93;100.00
69772;BME280;57046;45.988;18.664;2023-03-03T06:30:42;100879.53;;;7.84;100.00
69772;BME280;57046;45.988;18.664;2023-03-03T06:33:07;100882.66;;;7.91;100.00
69772;BME280;57046;45.988;18.664;2023-03-03T06:35:33;100882.56;;;7.96;100.00
69772;BME280;57046;45.988;18.664;2023-03-03T06:37:58;100882.78;;;8.00;100.00
69772;BME280;57046;45.988;18.664;2023-03-03T06:40:23;100871.03;;;7.96;100.00
69772;BME280;57046;45.988;18.664;2023-03-03T06:42:49;100892.47;;;8.01;100.00
69772;BME280;57046;45.988;18.664;2023-03-03T06:45:14;100884.59;;;8.04;100.00
69772;BME280;57046;45.988;18.664;2023-03-03T06:47:40;100879.44;;;8.08;100.00
69772;BME280;57046;45.988;18.664;2023-03-03T06:50:06;100890.19;;;8.08;100.00
69772;BME280;57046;45.988;18.664;2023-03-03T06:52:32;100890.47;;;8.06;100.00
69772;BME280;57046;45.988;18.664;2023-03-03T06:54:59;100886.72;;;8.07;100.00
69772;BME280;57046;45.988;18.664;2023-03-03T06:57:30;100882.84;;;8.13;100.00
69772;BME280;57046;45.988;18.664;2023-03-03T07:00:09;100888.22;;;8.13;100.00
69772;BME280;57046;45.988;18.664;2023-03-03T07:02:36;100892.25;;;8.16;100.00
69772;BME280;57046;45.988;18.664;2023-03-03T07:05:06;100895.72;;;8.16;100.00
69772;BME280;57046;45.988;18.664;2023-03-03T07:07:35;100895.66;;;8.22;100.00
69772;BME280;57046;45.988;18.664;2023-03-03T07:10:00;100886.50;;;8.23;100.00
69772;BME280;57046;45.988;18.664;2023-03-03T07:12:31;100896.09;;;8.29;100.00
69772;BME280;57046;45.988;18.664;2023-03-03T07:15:15;100896.34;;;8.27;100.00
69772;BME280;57046;45.988;18.664;2023-03-03T07:17:44;100895.59;;;8.27;100.00
69772;BME280;57046;45.988;18.664;2023-03-03T07:20:31;100895.22;;;8.33;100.00
69772;BME280;57046;45.988;18.664;2023-03-03T07:22:57;100895.22;;;8.33;100.00
69772;BME280;57046;45.988;18.664;2023-03-03T07:25:30;100902.50;;;8.33;100.00
69772;BME280;57046;45.988;18.664;2023-03-03T07:28:28;100890.72;;;8.29;100.00
69772;BME280;57046;45.988;18.664;2023-03-03T07:30:54;100899.66;;;8.43;100.00
69772;BME280;57046;45.988;18.664;2023-03-03T07:33:25;100894.75;;;8.45;100.00
69772;BME280;57046;45.988;18.664;2023-03-03T07:35:53;100903.56;;;8.50;100.00
69772;BME280;57046;45.988;18.664;2023-03-03T07:38:37;100887.69;;;8.49;100.00
69772;BME280;57046;45.988;18.664;2023-03-03T07:41:10;100898.88;;;8.56;100.00
69772;BME280;57046;45.988;18.664;2023-03-03T07:43:43;100893.50;;;8.56;100.00
69772;BME280;57046;45.988;18.664;2023-03-03T07:51:45;100909.34;;;8.57;100.00
69772;BME280;57046;45.988;18.664;2023-03-03T07:57:01;100899.22;;;8.68;100.00
69772;BME280;57046;45.988;18.664;2023-03-03T07:59:34;100898.59;;;8.71;100.00
69772;BME280;57046;45.988;18.664;2023-03-03T08:02:00;100905.41;;;8.68;100.00
69772;BME280;57046;45.988;18.664;2023-03-03T08:07:01;100912.44;;;8.83;100.00
69772;BME280;57046;45.988;18.664;2023-03-03T08:09:36;100896.06;;;8.80;100.00
69772;BME280;57046;45.988;18.664;2023-03-03T08:12:12;100908.84;;;8.88;100.00
69772;BME280;57046;45.988;18.664;2023-03-03T08:14:41;100905.94;;;8.84;100.00
69772;BME280;57046;45.988;18.664;2023-03-03T08:17:14;100884.47;;;8.79;100.00
69772;BME280;57046;45.988;18.664;2023-03-03T08:19:41;100907.06;;;8.97;100.00
69772;BME280;57046;45.988;18.664;2023-03-03T08:22:30;100903.28;;;8.98;100.00
69772;BME280;57046;45.988;18.664;2023-03-03T08:24:57;100907.53;;;8.99;100.00
69772;BME280;57046;45.988;18.664;2023-03-03T08:27:23;100912.53;;;9.05;100.00
69772;BME280;57046;45.988;18.664;2023-03-03T08:29:48;100910.44;;;9.02;99.87
69772;BME280;57046;45.988;18.664;2023-03-03T08:32:13;100918.13;;;9.09;100.00
69772;BME280;57046;45.988;18.664;2023-03-03T08:34:39;100915.66;;;9.12;100.00
69772;BME280;57046;45.988;18.664;2023-03-03T08:37:04;100914.06;;;9.11;100.00
69772;BME280;57046;45.988;18.664;2023-03-03T08:39:29;100910.56;;;9.11;99.77
69772;BME280;57046;45.988;18.664;2023-03-03T08:41:55;100905.66;;;9.13;99.97
69772;BME280;57046;45.988;18.664;2023-03-03T08:44:20;100907.88;;;9.25;98.80
69772;BME280;57046;45.988;18.664;2023-03-03T08:46:45;100910.56;;;9.25;99.54
69772;BME280;57046;45.988;18.664;2023-03-03T08:49:11;100912.66;;;9.28;99.13
69772;BME280;57046;45.988;18.664;2023-03-03T08:51:36;100915.97;;;9.25;98.19
69772;BME280;57046;45.988;18.664;2023-03-03T08:54:02;100906.56;;;9.22;99.24
69772;BME280;57046;45.988;18.664;2023-03-03T08:56:27;100913.16;;;9.30;98.35
69772;BME280;57046;45.988;18.664;2023-03-03T08:58:52;100912.28;;;9.34;98.69
69772;BME280;57046;45.988;18.664;2023-03-03T09:01:18;100914.06;;;9.39;99.81
69772;BME280;57046;45.988;18.664;2023-03-03T09:03:43;100906.69;;;9.31;99.69
69772;BME280;57046;45.988;18.664;2023-03-03T09:06:09;100900.69;;;9.34;98.52
69772;BME280;57046;45.988;18.664;2023-03-03T09:08:35;100911.56;;;9.42;99.59
69772;BME280;57046;45.988;18.664;2023-03-03T09:11:00;100912.34;;;9.43;98.33
69772;BME280;57046;45.988;18.664;2023-03-03T09:13:28;100908.16;;;9.50;97.56
69772;BME280;57046;45.988;18.664;2023-03-03T09:15:55;100916.38;;;9.45;98.25
69772;BME280;57046;45.988;18.664;2023-03-03T09:18:30;100917.25;;;9.54;97.53
69772;BME280;57046;45.988;18.664;2023-03-03T09:20:58;100901.97;;;9.50;98.19
69772;BME280;57046;45.988;18.664;2023-03-03T09:23:33;100920.94;;;9.58;98.27
69772;BME280;57046;45.988;18.664;2023-03-03T09:26:17;100918.94;;;9.64;97.86
69772;BME280;57046;45.988;18.664;2023-03-03T09:28:46;100925.22;;;9.73;96.65
69772;BME280;57046;45.988;18.664;2023-03-03T09:31:24;100921.94;;;9.76;96.79
69772;BME280;57046;45.988;18.664;2023-03-03T09:33:50;100920.53;;;9.79;97.04
69772;BME280;57046;45.988;18.664;2023-03-03T09:38:49;100914.41;;;9.73;95.87
69772;BME280;57046;45.988;18.664;2023-03-03T09:41:23;100920.19;;;9.80;95.65
69772;BME280;57046;45.988;18.664;2023-03-03T09:44:18;100910.41;;;9.84;95.78
69772;BME280;57046;45.988;18.664;2023-03-03T09:50:01;100923.06;;;9.97;95.93
69772;BME280;57046;45.988;18.664;2023-03-03T09:52:49;100926.94;;;10.05;94.21
69772;BME280;57046;45.988;18.664;2023-03-03T09:55:36;100931.25;;;10.06;95.20
69772;BME280;57046;45.988;18.664;2023-03-03T09:58:22;100918.56;;;10.06;95.10
69772;BME280;57046;45.988;18.664;2023-03-03T10:01:05;100917.03;;;10.14;93.92
69772;BME280;57046;45.988;18.664;2023-03-03T10:06:26;100926.66;;;10.20;92.81
69772;BME280;57046;45.988;18.664;2023-03-03T10:20:38;100920.09;;;10.57;91.66
69772;BME280;57046;45.988;18.664;2023-03-03T10:22:41;100920.88;;;10.57;90.90
69772;BME280;57046;45.988;18.664;2023-03-03T10:25:21;100924.88;;;10.60;90.41
69772;BME280;57046;45.988;18.664;2023-03-03T10:27:58;100924.69;;;10.56;87.69
69772;BME280;57046;45.988;18.664;2023-03-03T10:33:00;100892.19;;;10.48;87.54
69772;BME280;57046;45.988;18.664;2023-03-03T10:41:21;100911.28;;;10.73;89.00
69772;BME280;57046;45.988;18.664;2023-03-03T10:43:54;100903.81;;;10.79;88.64
69772;BME280;57046;45.988;18.664;2023-03-03T11:00:06;100897.81;;;11.21;86.06
69772;BME280;57046;45.988;18.664;2023-03-03T11:08:00;100902.63;;;11.33;85.67
69772;BME280;57046;45.988;18.664;2023-03-03T11:18:30;100889.00;;;11.64;83.07
69772;BME280;57046;45.988;18.664;2023-03-03T11:29:37;100882.16;;;11.58;77.30
69772;BME280;57046;45.988;18.664;2023-03-03T11:40:42;100878.25;;;11.98;80.17
69772;BME280;57046;45.988;18.664;2023-03-03T11:43:26;100872.81;;;12.15;80.81
69772;BME280;57046;45.988;18.664;2023-03-03T11:45:56;100873.63;;;12.07;78.88
69772;BME280;57046;45.988;18.664;2023-03-03T11:56:23;100861.84;;;12.20;79.89
69772;BME280;57046;45.988;18.664;2023-03-03T12:04:14;100846.19;;;12.26;78.51
69772;BME280;57046;45.988;18.664;2023-03-03T12:09:41;100842.34;;;12.44;79.76
69772;BME280;57046;45.988;18.664;2023-03-03T12:12:14;100838.66;;;12.49;79.59
69772;BME280;57046;45.988;18.664;2023-03-03T12:26:33;100835.25;;;12.69;77.64
69772;BME280;57046;45.988;18.664;2023-03-03T12:28:58;100836.53;;;12.63;77.05
69772;BME280;57046;45.988;18.664;2023-03-03T12:34:40;100818.41;;;12.55;74.83
69772;BME280;57046;45.988;18.664;2023-03-03T12:42:40;100837.63;;;12.70;77.09
69772;BME280;57046;45.988;18.664;2023-03-03T13:06:52;100807.44;;;13.18;73.65
69772;BME280;57046;45.988;18.664;2023-03-03T13:12:25;100833.78;;;13.18;73.01
69772;BME280;57046;45.988;18.664;2023-03-03T13:22:49;100825.47;;;13.23;71.29
69772;BME280;57046;45.988;18.664;2023-03-03T13:27:49;100830.69;;;13.28;71.66
69772;BME280;57046;45.988;18.664;2023-03-03T13:30:29;100802.88;;;13.02;72.05
69772;BME280;57046;45.988;18.664;2023-03-03T13:33:24;100825.38;;;13.11;73.08
69772;BME280;57046;45.988;18.664;2023-03-03T13:36:11;100791.38;;;12.75;71.10
69772;BME280;57046;45.988;18.664;2023-03-03T13:38:41;100820.72;;;12.73;71.91
69772;BME280;57046;45.988;18.664;2023-03-03T13:41:35;100828.41;;;12.63;72.28
69772;BME280;57046;45.988;18.664;2023-03-03T13:46:39;100830.81;;;12.64;74.18
69772;BME280;57046;45.988;18.664;2023-03-03T14:05:14;100826.00;;;11.72;80.47
69772;BME280;57046;45.988;18.664;2023-03-03T14:08:12;100815.31;;;11.84;80.80
69772;BME280;57046;45.988;18.664;2023-03-03T14:19:02;100820.22;;;11.65;81.58
69772;BME280;57046;45.988;18.664;2023-03-03T14:21:37;100813.84;;;11.52;81.29
69772;BME280;57046;45.988;18.664;2023-03-03T14:24:14;100822.75;;;11.36;82.07
69772;BME280;57046;45.988;18.664;2023-03-03T14:26:48;100811.13;;;11.35;81.97
69772;BME280;57046;45.988;18.664;2023-03-03T14:31:56;100816.88;;;11.42;81.75
69772;BME280;57046;45.988;18.664;2023-03-03T14:36:47;100814.59;;;11.18;82.88
69772;BME280;57046;45.988;18.664;2023-03-03T14:39:38;100815.22;;;11.15;83.51
69772;BME280;57046;45.988;18.664;2023-03-03T14:42:12;100820.34;;;11.26;82.26
69772;BME280;57046;45.988;18.664;2023-03-03T14:49:36;100813.78;;;11.18;82.34
69772;BME280;57046;45.988;18.664;2023-03-03T14:54:44;100816.16;;;11.19;83.33
69772;BME280;57046;45.988;18.664;2023-03-03T14:57:16;100824.56;;;11.09;82.62
69772;BME280;57046;45.988;18.664;2023-03-03T15:00:07;100798.94;;;10.98;82.94
69772;BME280;57046;45.988;18.664;2023-03-03T15:07:43;100809.69;;;11.29;83.03
69772;BME280;57046;45.988;18.664;2023-03-03T15:10:09;100809.22;;;11.36;82.18
69772;BME280;57046;45.988;18.664;2023-03-03T15:12:37;100800.59;;;11.34;82.02
69772;BME280;57046;45.988;18.664;2023-03-03T15:17:33;100805.50;;;11.23;82.62
69772;BME280;57046;45.988;18.664;2023-03-03T15:20:02;100799.34;;;11.31;81.96
69772;BME280;57046;45.988;18.664;2023-03-03T15:22:50;100804.59;;;11.28;82.60
69772;BME280;57046;45.988;18.664;2023-03-03T15:25:23;100800.28;;;11.27;81.93
69772;BME280;57046;45.988;18.664;2023-03-03T15:34:02;100806.19;;;11.29;82.31
69772;BME280;57046;45.988;18.664;2023-03-03T15:36:42;100810.63;;;11.24;82.64
69772;BME280;57046;45.988;18.664;2023-03-03T15:42:47;100807.06;;;11.07;82.50
69772;BME280;57046;45.988;18.664;2023-03-03T15:58:25;100826.13;;;10.93;83.54
69772;BME280;57046;45.988;18.664;2023-03-03T16:01:14;100830.91;;;10.96;83.68
69772;BME280;57046;45.988;18.664;2023-03-03T16:04:14;100836.13;;;10.84;84.16
69772;BME280;57046;45.988;18.664;2023-03-03T16:09:23;100836.00;;;10.98;83.77
69772;BME280;57046;45.988;18.664;2023-03-03T16:17:25;100831.06;;;10.91;84.09
69772;BME280;57046;45.988;18.664;2023-03-03T16:20:22;100831.41;;;10.98;83.57
69772;BME280;57046;45.988;18.664;2023-03-03T16:31:12;100829.34;;;11.04;83.19
69772;BME280;57046;45.988;18.664;2023-03-03T16:39:11;100840.34;;;11.07;82.32
69772;BME280;57046;45.988;18.664;2023-03-03T16:41:58;100849.56;;;11.06;82.22
69772;BME280;57046;45.988;18.664;2023-03-03T16:52:46;100850.38;;;10.76;82.08
69772;BME280;57046;45.988;18.664;2023-03-03T16:55:19;100858.91;;;11.00;88.95
69772;BME280;57046;45.988;18.664;2023-03-03T16:58:01;100843.06;;;10.68;82.46
69772;BME280;57046;45.988;18.664;2023-03-03T17:00:37;100875.22;;;10.78;82.41
69772;BME280;57046;45.988;18.664;2023-03-03T17:06:20;100891.81;;;10.63;81.98
69772;BME280;57046;45.988;18.664;2023-03-03T17:25:56;100887.63;;;10.12;82.73
69772;BME280;57046;45.988;18.664;2023-03-03T17:28:38;100893.13;;;10.07;82.77
69772;BME280;57046;45.988;18.664;2023-03-03T17:45:42;100889.81;;;9.88;83.00
69772;BME280;57046;45.988;18.664;2023-03-03T18:10:20;100908.97;;;9.51;83.04
69772;BME280;57046;45.988;18.664;2023-03-03T18:21:07;100907.06;;;9.38;86.12
69772;BME280;57046;45.988;18.664;2023-03-03T18:23:37;100906.69;;;9.31;84.22
69772;BME280;57046;45.988;18.664;2023-03-03T18:26:36;100921.03;;;9.26;83.13
69772;BME280;57046;45.988;18.664;2023-03-03T18:29:10;100923.34;;;9.19;82.84